Time;durP1;ratioP1;P1;durP2;ratioP2;P2;SDS_P1;SDS_P2;PMS_P1;PMS_P2;Temp;Humidity;BMP_temperature;BMP_pressure;BME280_temperature;BME280_humidity;BME280_pressure;Samples;Min_cycle;Max_cycle;Signal;HPM_P1;HPM_P2
2023/08/12 00:00:08;;;;;;;10.13;5.60;;;;;;;;;;5054389;28;20126;-72
2023/08/12 00:02:36;;;;;;;8.32;5.15;;;;;;;;;;5054163;28;20045;-72
2023/08/12 00:05:03;;;;;;;10.55;5.60;;;;;;;;;;5054474;28;20076;-72
2023/08/12 00:07:32;;;;;;;7.53;5.07;;;;;;;;;;5054290;28;20111;-72
2023/08/12 00:10:00;;;;;;;8.48;4.97;;;;;;;;;;5055993;28;20068;-72
2023/08/12 00:12:29;;;;;;;8.27;4.35;;;;;;;;;;5074408;28;20518;-72
2023/08/12 00:14:56;;;;;;;8.50;4.75;;;;;;;;;;5056603;28;20127;-72
2023/08/12 00:17:24;;;;;;;8.45;4.65;;;;;;;;;;5074164;28;20044;-72
2023/08/12 00:19:51;;;;;;;8.82;4.60;;;;;;;;;;5074236;28;20040;-72
2023/08/12 00:22:19;;;;;;;8.43;5.13;;;;;;;;;;5074052;28;20500;-72
2023/08/12 00:24:46;;;;;;;6.70;4.80;;;;;;;;;;5074075;28;20515;-72
2023/08/12 00:27:14;;;;;;;8.70;5.00;;;;;;;;;;5073937;28;20048;-72
2023/08/12 00:29:42;;;;;;;9.73;4.82;;;;;;;;;;5056144;28;20539;-72
2023/08/12 00:32:09;;;;;;;7.50;4.72;;;;;;;;;;5056022;28;20044;-72
2023/08/12 00:34:37;;;;;;;9.45;5.07;;;;;;;;;;5056071;28;20063;-72
2023/08/12 00:37:04;;;;;;;8.45;4.57;;;;;;;;;;5056215;28;20110;-72
2023/08/12 00:39:32;;;;;;;7.88;4.40;;;;;;;;;;5044316;28;20513;-72
2023/08/12 00:41:59;;;;;;;8.52;4.88;;;;;;;;;;5036033;28;20150;-72
2023/08/12 00:44:27;;;;;;;9.85;4.47;;;;;;;;;;5019417;28;20140;-72
2023/08/12 00:46:55;;;;;;;6.78;4.75;;;;;;;;;;5053689;28;20397;-72
2023/08/12 00:49:24;;;;;;;5.80;4.55;;;;;;;;;;5035887;28;20131;-72
2023/08/12 00:51:53;;;;;;;10.95;4.80;;;;;;;;;;5053766;28;20056;-72
2023/08/12 00:54:22;;;;;;;9.90;5.00;;;;;;;;;;5053465;28;20037;-72
2023/08/12 00:56:50;;;;;;;7.38;4.88;;;;;;;;;;5035617;28;20044;-72
2023/08/12 00:59:20;;;;;;;6.60;5.00;;;;;;;;;;5035477;28;20077;-72
2023/08/12 01:01:48;;;;;;;8.07;4.55;;;;;;;;;;5035395;28;20407;-72
2023/08/12 01:04:16;;;;;;;8.55;4.68;;;;;;;;;;5035566;28;20053;-72
2023/08/12 01:06:43;;;;;;;7.80;5.50;;;;;;;;;;5054960;28;20072;-72
2023/08/12 01:09:11;;;;;;;6.22;4.72;;;;;;;;;;5053275;28;20068;-72
2023/08/12 01:11:42;;;;;;;7.72;4.57;;;;;;;;;;5050825;28;20082;-72
2023/08/12 01:14:39;;;;;;;7.40;4.35;;;;;;;;;;5055125;28;20052;-72
2023/08/12 01:17:09;;;;;;;6.57;4.35;;;;;;;;;;5053670;28;20075;-72
2023/08/12 01:19:39;;;;;;;6.22;4.35;;;;;;;;;;5053117;28;20167;-72
2023/08/12 01:22:10;;;;;;;11.27;5.40;;;;;;;;;;5035179;28;20045;-72
2023/08/12 01:24:39;;;;;;;6.15;4.20;;;;;;;;;;5035059;28;20057;-72
2023/08/12 01:27:08;;;;;;;5.40;4.68;;;;;;;;;;5035423;28;20390;-72
2023/08/12 01:29:38;;;;;;;8.75;4.45;;;;;;;;;;5041857;28;20049;-72
2023/08/12 01:32:24;;;;;;;8.13;5.55;;;;;;;;;;5072903;28;20047;-72
2023/08/12 01:34:58;;;;;;;6.55;4.88;;;;;;;;;;5054674;28;20048;-72
2023/08/12 01:37:29;;;;;;;7.65;4.63;;;;;;;;;;5050355;28;20040;-72
2023/08/12 01:39:59;;;;;;;5.63;4.50;;;;;;;;;;5036752;28;20126;-73
2023/08/12 01:42:28;;;;;;;8.15;4.72;;;;;;;;;;5072676;28;20040;-72
2023/08/12 01:44:55;;;;;;;6.40;4.75;;;;;;;;;;5054487;28;20051;-72
2023/08/12 01:47:24;;;;;;;7.93;4.80;;;;;;;;;;5072696;28;20092;-72
2023/08/12 01:49:53;;;;;;;8.20;5.13;;;;;;;;;;5051319;28;20052;-72
2023/08/12 01:52:20;;;;;;;6.35;5.03;;;;;;;;;;5034770;28;20033;-72
2023/08/12 01:54:48;;;;;;;6.60;4.95;;;;;;;;;;5034970;28;20064;-72
2023/08/12 01:57:16;;;;;;;6.50;5.05;;;;;;;;;;5052655;28;20478;-72
2023/08/12 01:59:46;;;;;;;8.20;5.60;;;;;;;;;;5034222;28;20057;-71
2023/08/12 02:02:14;;;;;;;9.25;5.20;;;;;;;;;;5051914;28;20047;-71
2023/08/12 02:04:42;;;;;;;7.90;5.00;;;;;;;;;;5054499;28;20047;-71
2023/08/12 02:07:10;;;;;;;11.45;6.00;;;;;;;;;;5052604;28;20044;-71
2023/08/12 02:09:38;;;;;;;7.25;5.30;;;;;;;;;;5062903;28;20123;-71
2023/08/12 02:12:06;;;;;;;8.30;5.43;;;;;;;;;;5035609;28;20072;-71
2023/08/12 02:14:34;;;;;;;9.57;5.55;;;;;;;;;;5038099;28;20067;-71
2023/08/12 02:17:01;;;;;;;7.70;5.30;;;;;;;;;;5052059;28;20040;-71
2023/08/12 02:19:29;;;;;;;7.93;5.63;;;;;;;;;;5051389;28;20049;-71
2023/08/12 02:21:56;;;;;;;11.18;5.13;;;;;;;;;;5053619;28;20482;-71
2023/08/12 02:24:25;;;;;;;8.93;5.55;;;;;;;;;;5036560;28;20064;-71
2023/08/12 02:26:53;;;;;;;7.85;5.53;;;;;;;;;;5051455;28;20063;-71
2023/08/12 02:29:20;;;;;;;8.63;5.50;;;;;;;;;;5043895;28;20123;-72
2023/08/12 02:31:48;;;;;;;9.40;5.88;;;;;;;;;;5041910;28;20087;-71
2023/08/12 02:34:15;;;;;;;7.13;5.70;;;;;;;;;;5034620;28;20049;-71
2023/08/12 02:36:43;;;;;;;8.02;5.72;;;;;;;;;;5034241;28;20483;-71
2023/08/12 02:39:10;;;;;;;10.65;5.88;;;;;;;;;;5052014;28;20041;-71
2023/08/12 02:41:39;;;;;;;9.40;6.00;;;;;;;;;;5052299;28;20040;-71
2023/08/12 02:44:07;;;;;;;9.93;5.72;;;;;;;;;;5034107;28;20059;-71
2023/08/12 02:46:34;;;;;;;10.70;5.97;;;;;;;;;;5034042;28;20080;-71
2023/08/12 02:49:02;;;;;;;8.40;5.95;;;;;;;;;;5034235;28;20067;-71
2023/08/12 02:51:29;;;;;;;8.07;6.28;;;;;;;;;;5055228;28;20049;-71
2023/08/12 02:53:57;;;;;;;9.25;5.93;;;;;;;;;;5038294;28;20658;-71
2023/08/12 02:56:24;;;;;;;9.52;6.18;;;;;;;;;;5054844;28;20053;-71
2023/08/12 02:58:52;;;;;;;8.20;6.00;;;;;;;;;;5037619;28;20090;-71
2023/08/12 03:01:21;;;;;;;9.73;5.72;;;;;;;;;;5037809;28;20045;-71
2023/08/12 03:03:49;;;;;;;9.00;5.70;;;;;;;;;;5037655;28;20033;-71
2023/08/12 03:06:17;;;;;;;11.55;6.22;;;;;;;;;;5037529;28;20049;-73
2023/08/12 03:08:45;;;;;;;8.68;5.95;;;;;;;;;;5037569;28;20047;-73
2023/08/12 03:11:12;;;;;;;9.95;5.95;;;;;;;;;;5037533;28;20442;-73
2023/08/12 03:13:40;;;;;;;7.75;6.00;;;;;;;;;;5037605;28;20398;-72
2023/08/12 03:16:14;;;;;;;10.23;6.03;;;;;;;;;;5021355;28;20048;-71
2023/08/12 03:18:44;;;;;;;9.23;6.13;;;;;;;;;;5037447;28;20384;-71
2023/08/12 03:21:11;;;;;;;9.30;5.82;;;;;;;;;;5037402;28;20094;-73
2023/08/12 03:23:40;;;;;;;8.20;6.03;;;;;;;;;;5037264;28;20060;-75
2023/08/12 03:26:09;;;;;;;7.80;6.13;;;;;;;;;;5061237;28;20045;-73
2023/08/12 03:28:37;;;;;;;9.60;6.03;;;;;;;;;;5041686;28;20049;-73
2023/08/12 03:31:05;;;;;;;8.73;6.07;;;;;;;;;;5044680;28;20045;-73
2023/08/12 03:33:34;;;;;;;9.48;5.80;;;;;;;;;;5053845;28;20037;-72
2023/08/12 03:36:03;;;;;;;9.10;6.13;;;;;;;;;;5048249;28;20040;-72
2023/08/12 03:38:30;;;;;;;7.78;5.70;;;;;;;;;;5075304;28;20045;-72
2023/08/12 03:40:58;;;;;;;8.52;5.80;;;;;;;;;;5063671;28;20098;-73
2023/08/12 03:43:25;;;;;;;10.30;6.38;;;;;;;;;;5057029;28;20048;-72
2023/08/12 03:45:53;;;;;;;9.60;5.95;;;;;;;;;;5056848;28;20053;-71
2023/08/12 03:48:21;;;;;;;8.43;5.82;;;;;;;;;;5056800;28;20131;-73
2023/08/12 03:50:49;;;;;;;11.45;5.68;;;;;;;;;;5045975;28;20064;-72
2023/08/12 03:53:17;;;;;;;6.80;5.10;;;;;;;;;;5054726;28;20051;-67
2023/08/12 03:55:45;;;;;;;8.02;5.55;;;;;;;;;;5045790;28;20091;-71
2023/08/12 03:58:15;;;;;;;9.38;5.88;;;;;;;;;;5044080;28;20098;-71
2023/08/12 04:00:43;;;;;;;9.55;5.72;;;;;;;;;;5040702;28;20384;-71
2023/08/12 04:03:13;;;;;;;12.65;5.63;;;;;;;;;;5041540;28;20402;-71
2023/08/12 04:05:53;;;;;;;11.55;5.20;;;;;;;;;;5045329;28;20070;-72
2023/08/12 04:08:24;;;;;;;8.50;5.78;;;;;;;;;;5051771;28;20505;-72
2023/08/12 04:10:52;;;;;;;11.23;5.63;;;;;;;;;;5053199;28;20064;-72
2023/08/12 04:13:20;;;;;;;6.95;5.32;;;;;;;;;;5036569;28;20041;-72
2023/08/12 04:15:53;;;;;;;8.52;5.25;;;;;;;;;;5036478;28;20091;-72
2023/08/12 04:18:20;;;;;;;6.63;4.95;;;;;;;;;;5036354;28;20045;-72
2023/08/12 04:20:50;;;;;;;9.80;5.45;;;;;;;;;;5036310;28;20045;-72
2023/08/12 04:23:18;;;;;;;6.55;5.15;;;;;;;;;;5062964;28;20127;-72
2023/08/12 04:25:49;;;;;;;10.23;5.30;;;;;;;;;;5056057;28;20121;-72
2023/08/12 04:28:19;;;;;;;8.32;5.20;;;;;;;;;;5056015;28;20041;-72
2023/08/12 04:30:52;;;;;;;8.05;4.97;;;;;;;;;;5055991;28;20036;-71
2023/08/12 04:33:22;;;;;;;9.80;5.35;;;;;;;;;;5074061;28;20037;-72
2023/08/12 04:35:49;;;;;;;10.95;5.35;;;;;;;;;;5056015;28;20147;-71
2023/08/12 04:38:18;;;;;;;10.57;5.22;;;;;;;;;;5055989;28;20044;-72
2023/08/12 04:40:48;;;;;;;10.90;5.43;;;;;;;;;;5055908;28;20037;-72
2023/08/12 04:43:17;;;;;;;10.13;5.65;;;;;;;;;;5055941;28;20055;-72
2023/08/12 04:45:48;;;;;;;10.25;6.05;;;;;;;;;;5055825;28;20133;-72
2023/08/12 04:48:21;;;;;;;7.60;5.60;;;;;;;;;;5055946;28;20508;-71
2023/08/12 04:50:49;;;;;;;12.60;6.63;;;;;;;;;;5056152;28;20045;-71
2023/08/12 04:53:18;;;;;;;13.73;6.35;;;;;;;;;;5055966;28;20048;-71
2023/08/12 04:55:45;;;;;;;11.75;5.95;;;;;;;;;;5055660;28;20063;-71
2023/08/12 04:58:15;;;;;;;9.27;6.07;;;;;;;;;;5055759;28;20036;-71
2023/08/12 05:00:42;;;;;;;12.10;6.10;;;;;;;;;;5055498;28;20052;-71
2023/08/12 05:03:11;;;;;;;12.40;6.63;;;;;;;;;;5055459;28;20037;-71
2023/08/12 05:05:39;;;;;;;11.23;6.85;;;;;;;;;;5055177;28;20410;-70
2023/08/12 05:08:10;;;;;;;12.23;7.57;;;;;;;;;;5055647;28;20040;-70
2023/08/12 05:10:38;;;;;;;10.75;6.82;;;;;;;;;;5055503;28;20060;-71
2023/08/12 05:13:05;;;;;;;15.48;8.57;;;;;;;;;;5054390;28;20051;-70
2023/08/12 05:15:33;;;;;;;10.50;7.40;;;;;;;;;;5055176;28;20062;-70
2023/08/12 05:18:00;;;;;;;11.75;7.57;;;;;;;;;;5054554;28;20048;-70
2023/08/12 05:20:28;;;;;;;8.88;5.90;;;;;;;;;;5072508;28;20043;-68
2023/08/12 05:22:57;;;;;;;9.45;5.53;;;;;;;;;;5054973;28;20098;-70
2023/08/12 05:25:25;;;;;;;8.80;5.70;;;;;;;;;;5054433;28;20052;-69
2023/08/12 05:27:52;;;;;;;8.73;5.60;;;;;;;;;;5072357;28;20097;-69
2023/08/12 05:30:20;;;;;;;9.32;5.53;;;;;;;;;;5072622;28;20040;-69
2023/08/12 05:32:47;;;;;;;10.40;6.18;;;;;;;;;;5072318;28;20037;-70
2023/08/12 05:35:15;;;;;;;13.63;6.22;;;;;;;;;;5072926;28;20494;-69
2023/08/12 05:37:43;;;;;;;15.88;6.45;;;;;;;;;;5072900;28;20449;-69
2023/08/12 05:40:11;;;;;;;15.40;6.75;;;;;;;;;;5072816;28;20589;-70
2023/08/12 05:42:39;;;;;;;13.02;6.43;;;;;;;;;;5055152;28;20046;-70
2023/08/12 05:45:07;;;;;;;9.43;4.70;;;;;;;;;;5055079;28;20048;-70
2023/08/12 05:47:35;;;;;;;9.48;4.68;;;;;;;;;;5072767;28;20498;-70
2023/08/12 05:50:03;;;;;;;6.90;4.40;;;;;;;;;;5072714;28;20037;-70
2023/08/12 05:52:30;;;;;;;8.15;4.40;;;;;;;;;;5072642;28;20066;-69
2023/08/12 05:54:58;;;;;;;11.80;4.63;;;;;;;;;;5072864;28;20086;-70
2023/08/12 05:57:25;;;;;;;8.45;4.53;;;;;;;;;;5072306;28;20053;-70
2023/08/12 05:59:56;;;;;;;5.18;4.47;;;;;;;;;;5072657;28;20041;-70
2023/08/12 06:02:23;;;;;;;8.13;3.90;;;;;;;;;;5072578;28;20379;-70
2023/08/12 06:04:51;;;;;;;7.78;4.57;;;;;;;;;;5072534;28;20064;-72
2023/08/12 06:07:18;;;;;;;6.88;4.30;;;;;;;;;;5071761;28;20206;-71
2023/08/12 06:09:46;;;;;;;6.63;4.47;;;;;;;;;;5072650;28;20049;-72
2023/08/12 06:12:13;;;;;;;8.25;3.85;;;;;;;;;;5072489;28;20402;-72
2023/08/12 06:14:41;;;;;;;6.90;4.63;;;;;;;;;;5072442;28;20079;-72
2023/08/12 06:17:09;;;;;;;6.25;4.35;;;;;;;;;;5058836;28;20095;-71
2023/08/12 06:19:37;;;;;;;7.03;4.55;;;;;;;;;;5059389;28;20044;-70
2023/08/12 06:22:04;;;;;;;6.68;4.40;;;;;;;;;;5065427;28;20045;-71
2023/08/12 06:24:32;;;;;;;7.15;4.22;;;;;;;;;;5063367;28;20057;-71
2023/08/12 06:27:00;;;;;;;8.07;4.88;;;;;;;;;;5069579;28;20040;-71
2023/08/12 06:29:27;;;;;;;6.13;4.35;;;;;;;;;;5070193;28;20048;-72
2023/08/12 06:31:55;;;;;;;5.10;4.10;;;;;;;;;;5070588;28;20398;-71
2023/08/12 06:34:23;;;;;;;5.85;4.45;;;;;;;;;;5059894;28;20592;-70
2023/08/12 06:36:50;;;;;;;7.47;4.70;;;;;;;;;;5067395;28;20044;-72
2023/08/12 06:39:18;;;;;;;8.00;4.90;;;;;;;;;;5070283;28;20058;-71
2023/08/12 06:41:45;;;;;;;6.28;4.68;;;;;;;;;;5069949;28;20051;-71
2023/08/12 06:44:13;;;;;;;6.65;4.72;;;;;;;;;;5070546;28;20119;-72
2023/08/12 06:46:40;;;;;;;6.97;5.13;;;;;;;;;;5070308;28;20121;-71
2023/08/12 06:49:08;;;;;;;6.30;4.90;;;;;;;;;;5070292;28;20039;-71
2023/08/12 06:51:35;;;;;;;5.50;4.88;;;;;;;;;;5040861;28;20045;-70
2023/08/12 06:54:03;;;;;;;8.85;5.38;;;;;;;;;;5068291;28;20086;-69
2023/08/12 06:56:30;;;;;;;9.95;5.55;;;;;;;;;;5070687;28;20091;-70
2023/08/12 06:58:58;;;;;;;7.85;5.57;;;;;;;;;;5053178;28;20124;-71
2023/08/12 07:01:25;;;;;;;7.22;5.82;;;;;;;;;;5058809;28;20414;-72
2023/08/12 07:03:53;;;;;;;10.00;6.78;;;;;;;;;;5070584;28;20036;-71
2023/08/12 07:06:21;;;;;;;7.90;5.28;;;;;;;;;;5069943;28;20608;-70
2023/08/12 07:08:48;;;;;;;10.80;6.00;;;;;;;;;;5070406;28;20048;-73
2023/08/12 07:11:16;;;;;;;6.43;5.18;;;;;;;;;;5070116;28;20127;-71
2023/08/12 07:13:46;;;;;;;7.32;4.55;;;;;;;;;;5070532;28;20463;-73
2023/08/12 07:16:13;;;;;;;7.32;4.65;;;;;;;;;;5069930;28;20059;-70
2023/08/12 07:18:41;;;;;;;10.65;6.40;;;;;;;;;;5069612;28;20509;-71
2023/08/12 07:21:09;;;;;;;12.80;8.18;;;;;;;;;;5068759;28;20514;-71
2023/08/12 07:23:36;;;;;;;10.85;6.45;;;;;;;;;;5049748;28;20522;-69
2023/08/12 07:26:04;;;;;;;7.85;5.47;;;;;;;;;;5057770;28;20044;-66
2023/08/12 07:28:32;;;;;;;11.25;7.68;;;;;;;;;;5060796;28;20087;-66
2023/08/12 07:31:03;;;;;;;7.97;5.63;;;;;;;;;;5048559;28;20037;-66
2023/08/12 07:33:31;;;;;;;7.53;5.00;;;;;;;;;;5052864;28;20028;-66
2023/08/12 07:35:58;;;;;;;7.88;5.85;;;;;;;;;;5068742;28;20046;-67
2023/08/12 07:38:26;;;;;;;8.65;5.20;;;;;;;;;;5070041;28;20357;-67
2023/08/12 07:40:54;;;;;;;6.25;4.60;;;;;;;;;;5069470;28;20040;-66
2023/08/12 07:43:21;;;;;;;6.13;4.80;;;;;;;;;;5069590;28;20462;-67
2023/08/12 07:45:55;;;;;;;8.63;4.75;;;;;;;;;;5069505;28;20155;-65
2023/08/12 07:48:35;;;;;;;8.77;4.45;;;;;;;;;;5069241;28;20037;-67
2023/08/12 07:51:03;;;;;;;6.70;4.50;;;;;;;;;;5069305;28;20067;-67
2023/08/12 07:53:30;;;;;;;7.82;4.80;;;;;;;;;;5069065;28;20045;-66
2023/08/12 07:55:58;;;;;;;9.15;5.55;;;;;;;;;;5069664;28;20048;-67
2023/08/12 07:58:25;;;;;;;7.03;4.85;;;;;;;;;;5069119;28;20037;-66
2023/08/12 08:00:53;;;;;;;10.73;4.57;;;;;;;;;;5051153;28;20053;-67
2023/08/12 08:03:21;;;;;;;5.75;4.80;;;;;;;;;;5042839;28;20123;-67
2023/08/12 08:05:49;;;;;;;5.88;4.85;;;;;;;;;;5048952;28;20362;-67
2023/08/12 08:08:16;;;;;;;6.28;4.82;;;;;;;;;;5032816;28;20041;-68
2023/08/12 08:10:44;;;;;;;6.35;4.72;;;;;;;;;;5066885;28;20479;-67
2023/08/12 08:13:11;;;;;;;6.90;4.63;;;;;;;;;;5031600;28;20146;-67
2023/08/12 08:15:39;;;;;;;7.05;4.28;;;;;;;;;;5051383;28;20079;-67
2023/08/12 08:18:06;;;;;;;5.60;4.80;;;;;;;;;;5068555;28;20048;-68
2023/08/12 08:20:35;;;;;;;7.03;4.75;;;;;;;;;;5069028;28;20575;-67
2023/08/12 08:23:03;;;;;;;9.45;4.43;;;;;;;;;;5068569;28;20042;-68
2023/08/12 08:25:30;;;;;;;6.90;4.30;;;;;;;;;;5062037;28;20047;-67
2023/08/12 08:27:58;;;;;;;8.13;4.72;;;;;;;;;;5050650;28;20075;-67
2023/08/12 08:30:25;;;;;;;5.30;4.32;;;;;;;;;;5068164;28;20040;-67
2023/08/12 08:32:53;;;;;;;5.07;4.15;;;;;;;;;;5068830;28;20044;-67
2023/08/12 08:35:21;;;;;;;6.85;4.70;;;;;;;;;;5068031;28;20051;-65
2023/08/12 08:37:49;;;;;;;6.55;4.50;;;;;;;;;;5068019;28;20048;-65
2023/08/12 08:40:16;;;;;;;5.50;4.07;;;;;;;;;;5061258;28;20102;-65
2023/08/12 08:42:53;;;;;;;4.43;3.90;;;;;;;;;;5068308;28;20059;-65
2023/08/12 08:45:21;;;;;;;5.80;4.35;;;;;;;;;;5050417;28;20356;-65
2023/08/12 08:47:51;;;;;;;7.05;4.40;;;;;;;;;;5068207;28;20047;-66
2023/08/12 08:50:19;;;;;;;6.80;4.82;;;;;;;;;;5068227;28;20040;-65
2023/08/12 08:52:47;;;;;;;5.70;4.43;;;;;;;;;;5067918;28;20047;-65
2023/08/12 08:55:15;;;;;;;4.38;3.97;;;;;;;;;;5068104;28;20225;-66
2023/08/12 08:57:44;;;;;;;6.50;4.55;;;;;;;;;;5068114;28;20040;-66
2023/08/12 09:00:15;;;;;;;9.85;4.80;;;;;;;;;;5067919;28;20131;-65
2023/08/12 09:02:48;;;;;;;9.85;6.00;;;;;;;;;;5068069;28;20060;-65
2023/08/12 09:05:16;;;;;;;7.68;5.13;;;;;;;;;;5067856;28;20037;-65
2023/08/12 09:07:45;;;;;;;6.28;4.60;;;;;;;;;;5067793;28;20086;-65
2023/08/12 09:10:13;;;;;;;17.15;13.32;;;;;;;;;;5068448;28;20397;-65
2023/08/12 09:12:43;;;;;;;13.80;8.50;;;;;;;;;;5067691;28;20128;-65
2023/08/12 09:15:10;;;;;;;47.55;39.83;;;;;;;;;;5067724;28;20124;-66
2023/08/12 09:17:38;;;;;;;7.95;5.20;;;;;;;;;;5067470;28;20056;-66
2023/08/12 09:20:11;;;;;;;15.68;13.77;;;;;;;;;;5067757;28;20049;-64
2023/08/12 09:22:42;;;;;;;7.97;5.97;;;;;;;;;;5061874;28;20084;-66
2023/08/12 09:25:10;;;;;;;11.10;7.50;;;;;;;;;;5051121;28;20514;-66
2023/08/12 09:27:38;;;;;;;7.32;4.20;;;;;;;;;;5052411;28;20587;-66
2023/08/12 09:30:07;;;;;;;6.03;4.82;;;;;;;;;;5050759;28;20040;-68
2023/08/12 09:32:35;;;;;;;8.52;5.38;;;;;;;;;;5048825;28;20514;-68
2023/08/12 09:35:04;;;;;;;6.85;4.88;;;;;;;;;;5051039;28;20033;-68
2023/08/12 09:37:32;;;;;;;7.57;5.40;;;;;;;;;;5053528;28;20090;-68
2023/08/12 09:40:04;;;;;;;6.93;4.90;;;;;;;;;;5056258;28;20052;-67
2023/08/12 09:42:33;;;;;;;5.72;4.50;;;;;;;;;;5052838;28;20095;-65
2023/08/12 09:45:01;;;;;;;8.60;6.10;;;;;;;;;;5055607;28;20710;-66
2023/08/12 09:47:28;;;;;;;7.38;5.05;;;;;;;;;;5051875;28;20056;-66
2023/08/12 09:49:56;;;;;;;7.07;4.93;;;;;;;;;;5050996;28;20098;-68
2023/08/12 09:52:24;;;;;;;8.50;4.30;;;;;;;;;;5034404;28;20049;-69
2023/08/12 09:54:55;;;;;;;6.00;4.70;;;;;;;;;;5035470;28;20080;-69
2023/08/12 09:57:26;;;;;;;7.45;3.72;;;;;;;;;;5052456;28;20064;-68
2023/08/12 09:59:54;;;;;;;5.25;3.95;;;;;;;;;;5053929;28;20140;-68
2023/08/12 10:02:21;;;;;;;5.95;3.80;;;;;;;;;;5039885;28;20384;-67
2023/08/12 10:04:51;;;;;;;6.07;3.90;;;;;;;;;;5051509;28;20487;-70
2023/08/12 10:07:19;;;;;;;4.95;4.03;;;;;;;;;;5033653;28;20060;-67
2023/08/12 10:09:47;;;;;;;5.80;3.60;;;;;;;;;;5052575;28;20523;-66
2023/08/12 10:12:15;;;;;;;5.90;3.95;;;;;;;;;;5068105;28;20124;-67
2023/08/12 10:14:47;;;;;;;4.90;3.65;;;;;;;;;;5058911;28;20132;-67
2023/08/12 10:17:15;;;;;;;6.30;4.30;;;;;;;;;;5052143;28;20124;-68
2023/08/12 10:20:00;;;;;;;5.57;4.30;;;;;;;;;;5052096;28;20041;-68
2023/08/12 10:22:29;;;;;;;5.75;4.80;;;;;;;;;;5051989;28;20103;-68
2023/08/12 10:25:02;;;;;;;12.52;7.60;;;;;;;;;;5049474;28;20126;-67
2023/08/12 10:27:30;;;;;;;7.57;4.25;;;;;;;;;;5058365;28;20049;-67
2023/08/12 10:29:57;;;;;;;6.60;3.80;;;;;;;;;;5055232;28;20047;-67
2023/08/12 10:32:26;;;;;;;4.70;3.40;;;;;;;;;;5063973;28;20135;-68
2023/08/12 10:34:55;;;;;;;5.25;3.75;;;;;;;;;;5061427;28;20386;-67
2023/08/12 10:37:24;;;;;;;6.85;3.85;;;;;;;;;;5054216;28;20064;-68
2023/08/12 10:39:55;;;;;;;4.65;3.78;;;;;;;;;;5046037;28;20456;-68
2023/08/12 10:42:44;;;;;;;4.63;3.80;;;;;;;;;;5053736;28;20037;-68
2023/08/12 10:45:12;;;;;;;6.82;4.07;;;;;;;;;;5057843;28;20051;-68
2023/08/12 10:47:49;;;;;;;8.77;4.13;;;;;;;;;;5054449;28;20040;-68
2023/08/12 10:50:21;;;;;;;5.85;3.95;;;;;;;;;;5057445;28;20043;-69
2023/08/12 10:52:51;;;;;;;6.82;4.22;;;;;;;;;;5053056;28;20099;-69
2023/08/12 10:55:23;;;;;;;5.43;3.70;;;;;;;;;;5042601;28;20407;-67
2023/08/12 10:57:52;;;;;;;4.95;3.80;;;;;;;;;;5055666;28;20562;-67
2023/08/12 11:00:27;;;;;;;6.53;3.92;;;;;;;;;;5063675;28;20061;-68
2023/08/12 11:02:56;;;;;;;6.97;3.95;;;;;;;;;;5054436;28;20037;-67
2023/08/12 11:05:25;;;;;;;5.40;3.67;;;;;;;;;;5055622;28;20167;-68
2023/08/12 11:08:03;;;;;;;6.28;3.70;;;;;;;;;;5035434;28;20048;-71
2023/08/12 11:10:31;;;;;;;5.10;3.90;;;;;;;;;;5066569;28;20174;-72
2023/08/12 11:13:02;;;;;;;5.97;3.58;;;;;;;;;;5060463;28;20036;-75
2023/08/12 11:15:34;;;;;;;8.05;3.88;;;;;;;;;;5057177;28;20045;-73
2023/08/12 11:18:06;;;;;;;7.72;4.10;;;;;;;;;;5061570;28;20810;-72
2023/08/12 11:20:34;;;;;;;7.70;3.58;;;;;;;;;;5059678;28;20044;-72
2023/08/12 11:23:03;;;;;;;5.43;3.20;;;;;;;;;;5045876;28;20127;-74
2023/08/12 11:25:31;;;;;;;6.68;3.67;;;;;;;;;;5058260;28;20048;-72
2023/08/12 11:27:59;;;;;;;4.90;3.53;;;;;;;;;;5057227;28;20145;-71
2023/08/12 11:30:27;;;;;;;7.18;4.50;;;;;;;;;;5067823;28;20402;-72
2023/08/12 11:32:59;;;;;;;5.63;3.40;;;;;;;;;;5059413;28;20044;-72
2023/08/12 11:35:27;;;;;;;3.55;3.20;;;;;;;;;;5062253;28;20620;-71
2023/08/12 11:37:58;;;;;;;5.38;3.50;;;;;;;;;;5063538;28;20040;-72
2023/08/12 11:40:26;;;;;;;5.40;4.10;;;;;;;;;;5056209;28;20056;-72
2023/08/12 11:42:54;;;;;;;7.32;4.30;;;;;;;;;;5060517;28;20110;-72
2023/08/12 11:45:23;;;;;;;4.38;3.70;;;;;;;;;;5047901;28;20383;-72
2023/08/12 11:47:54;;;;;;;5.32;3.80;;;;;;;;;;5069073;28;20048;-72
2023/08/12 11:50:27;;;;;;;7.72;3.65;;;;;;;;;;5069228;28;20572;-72
2023/08/12 11:52:56;;;;;;;6.10;3.70;;;;;;;;;;5069464;28;20044;-71
2023/08/12 11:55:24;;;;;;;6.07;3.95;;;;;;;;;;5063704;28;20041;-72
2023/08/12 11:57:52;;;;;;;5.22;3.33;;;;;;;;;;5069305;28;20110;-71
2023/08/12 12:00:20;;;;;;;3.80;3.40;;;;;;;;;;5068970;28;20079;-71
2023/08/12 12:02:52;;;;;;;4.45;3.47;;;;;;;;;;5069580;28;20117;-70
2023/08/12 12:05:22;;;;;;;7.80;3.90;;;;;;;;;;5072357;28;20463;-72
2023/08/12 12:07:52;;;;;;;4.50;3.08;;;;;;;;;;5055959;28;20052;-73
2023/08/12 12:10:21;;;;;;;6.28;3.63;;;;;;;;;;5073183;28;20039;-71
2023/08/12 12:12:49;;;;;;;5.47;3.30;;;;;;;;;;5070913;28;20041;-71
2023/08/12 12:15:17;;;;;;;7.05;4.63;;;;;;;;;;5055996;28;20107;-71
2023/08/12 12:17:48;;;;;;;5.00;3.35;;;;;;;;;;5053466;28;20126;-71
2023/08/12 12:20:16;;;;;;;4.85;3.40;;;;;;;;;;5054178;28;20491;-72
2023/08/12 12:22:45;;;;;;;4.90;3.60;;;;;;;;;;5054154;28;20095;-72
2023/08/12 12:25:13;;;;;;;5.72;3.40;;;;;;;;;;5053117;28;20056;-72
2023/08/12 12:27:41;;;;;;;3.88;3.20;;;;;;;;;;5054242;28;20067;-71
2023/08/12 12:30:10;;;;;;;6.50;3.28;;;;;;;;;;5054016;28;20124;-71
2023/08/12 12:32:38;;;;;;;4.03;3.38;;;;;;;;;;5053267;28;20037;-71
2023/08/12 12:35:07;;;;;;;3.47;2.85;;;;;;;;;;5053275;28;20056;-71
2023/08/12 12:37:35;;;;;;;5.97;3.47;;;;;;;;;;5053129;28;20044;-71
2023/08/12 12:40:03;;;;;;;7.07;3.50;;;;;;;;;;5053511;28;20045;-72
2023/08/12 12:42:31;;;;;;;5.22;3.50;;;;;;;;;;5053767;28;20037;-72
2023/08/12 12:44:58;;;;;;;6.28;3.75;;;;;;;;;;5054119;28;20103;-72
2023/08/12 12:47:26;;;;;;;5.32;2.90;;;;;;;;;;5054183;28;20473;-72
2023/08/12 12:49:53;;;;;;;12.68;3.63;;;;;;;;;;5053936;28;20045;-72
2023/08/12 12:52:21;;;;;;;3.72;3.22;;;;;;;;;;5053970;28;20090;-72
2023/08/12 12:54:48;;;;;;;4.80;2.97;;;;;;;;;;5053596;28;20435;-71
2023/08/12 12:57:16;;;;;;;4.25;3.20;;;;;;;;;;5053615;28;20040;-71
2023/08/12 12:59:43;;;;;;;5.75;3.65;;;;;;;;;;5053312;28;20503;-70
2023/08/12 13:02:11;;;;;;;5.38;3.58;;;;;;;;;;5053707;28;20102;-70
2023/08/12 13:04:39;;;;;;;5.40;3.35;;;;;;;;;;5053462;28;20045;-71
2023/08/12 13:07:07;;;;;;;3.65;3.05;;;;;;;;;;5051890;28;20049;-71
2023/08/12 13:09:34;;;;;;;5.43;3.13;;;;;;;;;;5035471;28;20128;-71
2023/08/12 13:12:02;;;;;;;4.85;3.42;;;;;;;;;;5035267;28;20094;-71
2023/08/12 13:14:30;;;;;;;6.72;3.50;;;;;;;;;;5035716;28;20072;-71
2023/08/12 13:16:57;;;;;;;5.45;3.17;;;;;;;;;;5053253;28;20099;-71
2023/08/12 13:19:25;;;;;;;7.35;3.47;;;;;;;;;;5053245;28;20051;-72
2023/08/12 13:21:52;;;;;;;6.82;3.05;;;;;;;;;;5053098;28;20531;-72
2023/08/12 13:24:20;;;;;;;3.22;2.83;;;;;;;;;;5053093;28;20043;-73
2023/08/12 13:26:47;;;;;;;4.80;3.25;;;;;;;;;;5053099;28;20052;-70
2023/08/12 13:29:15;;;;;;;5.80;3.28;;;;;;;;;;5053057;28;20049;-72
2023/08/12 13:31:43;;;;;;;5.15;3.20;;;;;;;;;;5035210;28;20060;-72
2023/08/12 13:34:10;;;;;;;9.77;5.32;;;;;;;;;;5059712;28;20049;-72
2023/08/12 13:36:38;;;;;;;5.55;4.53;;;;;;;;;;5052057;28;20117;-70
2023/08/12 13:39:05;;;;;;;5.93;4.10;;;;;;;;;;5054367;28;20068;-71
2023/08/12 13:41:33;;;;;;;6.50;4.40;;;;;;;;;;5052968;28;20048;-70
2023/08/12 13:44:00;;;;;;;7.20;3.20;;;;;;;;;;5053816;28;20076;-71
2023/08/12 13:46:28;;;;;;;5.07;3.75;;;;;;;;;;5043159;28;20052;-72
2023/08/12 13:48:55;;;;;;;7.75;4.88;;;;;;;;;;5067824;28;20094;-70
2023/08/12 13:51:23;;;;;;;7.95;4.20;;;;;;;;;;5068346;28;20065;-71
2023/08/12 13:53:51;;;;;;;6.00;3.70;;;;;;;;;;5064494;28;20061;-70
2023/08/12 13:56:18;;;;;;;3.00;2.70;;;;;;;;;;5065032;28;20140;-72
2023/08/12 13:58:46;;;;;;;3.92;2.95;;;;;;;;;;5050907;28;20040;-71
2023/08/12 14:01:13;;;;;;;4.32;3.08;;;;;;;;;;5067659;28;20072;-70
2023/08/12 14:03:41;;;;;;;4.00;2.80;;;;;;;;;;5068582;28;20036;-70
2023/08/12 14:06:09;;;;;;;5.43;3.17;;;;;;;;;;5068620;28;20044;-70
2023/08/12 14:08:36;;;;;;;5.53;2.92;;;;;;;;;;5068557;28;20571;-72
2023/08/12 14:11:04;;;;;;;6.20;4.88;;;;;;;;;;5063035;28;20045;-72
2023/08/12 14:13:31;;;;;;;6.30;3.70;;;;;;;;;;5060337;28;20140;-70
2023/08/12 14:15:59;;;;;;;6.93;3.53;;;;;;;;;;5050223;28;20040;-70
2023/08/12 14:18:26;;;;;;;5.55;4.30;;;;;;;;;;5065472;28;20121;-70
2023/08/12 14:20:54;;;;;;;7.13;4.53;;;;;;;;;;5053032;28;20483;-71
2023/08/12 14:23:22;;;;;;;3.42;2.90;;;;;;;;;;5038643;28;20059;-70
2023/08/12 14:25:50;;;;;;;6.30;3.38;;;;;;;;;;5054118;28;20410;-71
2023/08/12 14:28:18;;;;;;;5.50;3.42;;;;;;;;;;5057788;28;20090;-69
2023/08/12 14:30:45;;;;;;;4.10;2.85;;;;;;;;;;5050074;28;20048;-69
2023/08/12 14:33:13;;;;;;;3.50;2.80;;;;;;;;;;5052792;28;20036;-69
2023/08/12 14:35:40;;;;;;;5.03;3.10;;;;;;;;;;5048920;28;20036;-66
2023/08/12 14:38:08;;;;;;;6.95;2.80;;;;;;;;;;5052416;28;20044;-70
2023/08/12 14:40:36;;;;;;;3.65;2.97;;;;;;;;;;5058192;28;20045;-69
2023/08/12 14:43:03;;;;;;;4.97;3.00;;;;;;;;;;5058221;28;20094;-70
2023/08/12 14:45:31;;;;;;;6.13;3.22;;;;;;;;;;5054007;28;20041;-70
2023/08/12 14:47:58;;;;;;;5.03;3.20;;;;;;;;;;5040688;28;20132;-70